sensor_id;sensor_type;location;lat;lon;timestamp;pressure;altitude;pressure_sealevel;temperature;humidity
6345;BME280;3205;42.666;23.264;2023-01-28T00:00:35;93723.94;;;2.62;nan
6345;BME280;3205;42.666;23.264;2023-01-28T00:03:01;93711.22;;;2.60;nan
6345;BME280;3205;42.666;23.264;2023-01-28T00:05:27;93716.88;;;2.54;nan
6345;BME280;3205;42.666;23.264;2023-01-28T00:07:55;93721.06;;;2.63;nan
6345;BME280;3205;42.666;23.264;2023-01-28T00:10:21;93729.00;;;2.58;nan
6345;BME280;3205;42.666;23.264;2023-01-28T00:12:47;93734.69;;;2.60;nan
6345;BME280;3205;42.666;23.264;2023-01-28T00:15:15;93741.63;;;2.65;nan
6345;BME280;3205;42.666;23.264;2023-01-28T00:17:41;93740.78;;;2.56;nan
6345;BME280;3205;42.666;23.264;2023-01-28T00:20:08;93746.16;;;2.51;nan
6345;BME280;3205;42.666;23.264;2023-01-28T00:22:35;93746.44;;;2.49;nan
6345;BME280;3205;42.666;23.264;2023-01-28T00:25:02;93748.34;;;2.57;nan
6345;BME280;3205;42.666;23.264;2023-01-28T00:27:28;93747.69;;;2.52;nan
6345;BME280;3205;42.666;23.264;2023-01-28T00:29:55;93743.88;;;2.58;nan
6345;BME280;3205;42.666;23.264;2023-01-28T00:32:21;93756.94;;;2.58;nan
6345;BME280;3205;42.666;23.264;2023-01-28T00:34:47;93749.50;;;2.51;nan
6345;BME280;3205;42.666;23.264;2023-01-28T00:37:14;93752.41;;;2.50;nan
6345;BME280;3205;42.666;23.264;2023-01-28T00:39:40;93759.53;;;2.58;nan
6345;BME280;3205;42.666;23.264;2023-01-28T00:42:07;93751.06;;;2.52;nan
6345;BME280;3205;42.666;23.264;2023-01-28T00:44:33;93758.97;;;2.39;nan
6345;BME280;3205;42.666;23.264;2023-01-28T00:47:00;93758.28;;;2.33;nan
6345;BME280;3205;42.666;23.264;2023-01-28T00:49:26;93759.13;;;2.42;nan
6345;BME280;3205;42.666;23.264;2023-01-28T00:51:53;93764.53;;;2.46;nan
6345;BME280;3205;42.666;23.264;2023-01-28T00:54:19;93759.34;;;2.32;nan
6345;BME280;3205;42.666;23.264;2023-01-28T00:56:46;93766.28;;;2.37;nan
6345;BME280;3205;42.666;23.264;2023-01-28T00:59:13;93763.09;;;2.40;nan
6345;BME280;3205;42.666;23.264;2023-01-28T01:01:39;93767.72;;;2.43;nan
6345;BME280;3205;42.666;23.264;2023-01-28T01:04:05;93765.16;;;2.51;nan
6345;BME280;3205;42.666;23.264;2023-01-28T01:06:33;93769.44;;;2.47;nan
6345;BME280;3205;42.666;23.264;2023-01-28T01:09:01;93760.97;;;2.42;nan
6345;BME280;3205;42.666;23.264;2023-01-28T01:14:12;93758.16;;;2.38;nan
6345;BME280;3205;42.666;23.264;2023-01-28T01:16:38;93760.38;;;2.45;nan
6345;BME280;3205;42.666;23.264;2023-01-28T01:19:05;93763.09;;;2.40;nan
6345;BME280;3205;42.666;23.264;2023-01-28T01:21:31;93764.22;;;2.25;nan
6345;BME280;3205;42.666;23.264;2023-01-28T01:23:57;93772.34;;;2.24;nan
6345;BME280;3205;42.666;23.264;2023-01-28T01:26:24;93772.16;;;2.20;nan
6345;BME280;3205;42.666;23.264;2023-01-28T01:28:52;93777.91;;;2.31;nan
6345;BME280;3205;42.666;23.264;2023-01-28T01:31:19;93771.03;;;2.35;nan
6345;BME280;3205;42.666;23.264;2023-01-28T01:33:48;93775.47;;;2.34;nan
6345;BME280;3205;42.666;23.264;2023-01-28T01:36:15;93775.31;;;2.31;nan
6345;BME280;3205;42.666;23.264;2023-01-28T01:38:42;93778.72;;;2.18;nan
6345;BME280;3205;42.666;23.264;2023-01-28T01:41:16;93772.13;;;2.34;nan
6345;BME280;3205;42.666;23.264;2023-01-28T01:43:48;93777.25;;;2.25;nan
6345;BME280;3205;42.666;23.264;2023-01-28T01:46:16;93776.06;;;2.31;nan
6345;BME280;3205;42.666;23.264;2023-01-28T01:48:45;93777.44;;;2.29;nan
6345;BME280;3205;42.666;23.264;2023-01-28T01:51:14;93780.69;;;2.34;nan
6345;BME280;3205;42.666;23.264;2023-01-28T01:53:45;93773.75;;;2.30;nan
6345;BME280;3205;42.666;23.264;2023-01-28T01:56:15;93778.97;;;2.30;nan
6345;BME280;3205;42.666;23.264;2023-01-28T01:58:44;93774.38;;;2.27;nan
6345;BME280;3205;42.666;23.264;2023-01-28T02:01:12;93772.22;;;2.29;nan
6345;BME280;3205;42.666;23.264;2023-01-28T02:03:46;93776.25;;;2.35;nan
6345;BME280;3205;42.666;23.264;2023-01-28T02:06:17;93776.50;;;2.25;nan
6345;BME280;3205;42.666;23.264;2023-01-28T02:08:44;93782.38;;;2.30;nan
6345;BME280;3205;42.666;23.264;2023-01-28T02:11:11;93787.97;;;2.24;nan
6345;BME280;3205;42.666;23.264;2023-01-28T02:13:42;93789.22;;;2.26;nan
6345;BME280;3205;42.666;23.264;2023-01-28T02:16:10;93790.59;;;2.24;nan
6345;BME280;3205;42.666;23.264;2023-01-28T02:18:37;93795.13;;;2.18;nan
6345;BME280;3205;42.666;23.264;2023-01-28T02:24:10;93788.28;;;2.22;nan
6345;BME280;3205;42.666;23.264;2023-01-28T02:29:52;93788.03;;;2.32;nan
6345;BME280;3205;42.666;23.264;2023-01-28T02:32:24;93789.72;;;2.28;nan
6345;BME280;3205;42.666;23.264;2023-01-28T02:34:57;93790.94;;;2.31;nan
6345;BME280;3205;42.666;23.264;2023-01-28T02:37:28;93793.69;;;2.26;nan
6345;BME280;3205;42.666;23.264;2023-01-28T02:40:08;93784.69;;;2.32;nan
6345;BME280;3205;42.666;23.264;2023-01-28T02:42:36;93787.50;;;2.22;nan
6345;BME280;3205;42.666;23.264;2023-01-28T02:45:14;93792.78;;;2.30;nan
6345;BME280;3205;42.666;23.264;2023-01-28T02:47:41;93796.19;;;2.17;nan
6345;BME280;3205;42.666;23.264;2023-01-28T02:50:24;93790.72;;;2.19;nan
6345;BME280;3205;42.666;23.264;2023-01-28T02:53:05;93788.69;;;2.16;nan
6345;BME280;3205;42.666;23.264;2023-01-28T02:55:52;93792.72;;;2.22;nan
6345;BME280;3205;42.666;23.264;2023-01-28T02:58:28;93785.94;;;2.21;nan
6345;BME280;3205;42.666;23.264;2023-01-28T03:01:04;93790.94;;;2.31;nan
6345;BME280;3205;42.666;23.264;2023-01-28T03:03:40;93799.06;;;2.29;nan
6345;BME280;3205;42.666;23.264;2023-01-28T03:06:11;93800.13;;;2.28;nan
6345;BME280;3205;42.666;23.264;2023-01-28T03:08:43;93801.13;;;2.19;nan
6345;BME280;3205;42.666;23.264;2023-01-28T03:11:31;93800.84;;;2.20;nan
6345;BME280;3205;42.666;23.264;2023-01-28T03:14:18;93803.13;;;2.22;nan
6345;BME280;3205;42.666;23.264;2023-01-28T03:17:04;93802.06;;;2.23;nan
6345;BME280;3205;42.666;23.264;2023-01-28T03:19:51;93804.19;;;2.21;nan
6345;BME280;3205;42.666;23.264;2023-01-28T03:22:38;93804.28;;;2.29;nan
6345;BME280;3205;42.666;23.264;2023-01-28T03:25:26;93806.59;;;2.31;nan
6345;BME280;3205;42.666;23.264;2023-01-28T03:28:13;93799.06;;;2.29;nan
6345;BME280;3205;42.666;23.264;2023-01-28T03:31:04;93800.91;;;2.29;nan
6345;BME280;3205;42.666;23.264;2023-01-28T03:33:50;93817.91;;;2.26;nan
6345;BME280;3205;42.666;23.264;2023-01-28T03:36:36;93809.28;;;2.04;nan
6345;BME280;3205;42.666;23.264;2023-01-28T03:39:16;93804.50;;;2.19;nan
6345;BME280;3205;42.666;23.264;2023-01-28T03:41:54;93816.59;;;2.37;nan
6345;BME280;3205;42.666;23.264;2023-01-28T03:44:20;93812.44;;;2.15;nan
6345;BME280;3205;42.666;23.264;2023-01-28T03:47:04;93813.69;;;2.17;nan
6345;BME280;3205;42.666;23.264;2023-01-28T03:49:33;93819.59;;;2.09;nan
6345;BME280;3205;42.666;23.264;2023-01-28T03:52:00;93820.56;;;2.13;nan
6345;BME280;3205;42.666;23.264;2023-01-28T03:54:26;93820.56;;;2.13;nan
6345;BME280;3205;42.666;23.264;2023-01-28T03:56:52;93817.47;;;2.11;nan
6345;BME280;3205;42.666;23.264;2023-01-28T03:59:19;93827.19;;;2.19;nan
6345;BME280;3205;42.666;23.264;2023-01-28T04:01:45;93834.06;;;2.15;nan
6345;BME280;3205;42.666;23.264;2023-01-28T04:04:11;93826.22;;;2.15;nan
6345;BME280;3205;42.666;23.264;2023-01-28T04:06:49;93833.41;;;2.10;nan
6345;BME280;3205;42.666;23.264;2023-01-28T04:09:15;93827.41;;;2.09;nan
6345;BME280;3205;42.666;23.264;2023-01-28T04:11:41;93831.00;;;2.13;nan
6345;BME280;3205;42.666;23.264;2023-01-28T04:14:07;93831.38;;;2.07;nan
6345;BME280;3205;42.666;23.264;2023-01-28T04:16:34;93833.97;;;2.07;nan
6345;BME280;3205;42.666;23.264;2023-01-28T04:19:00;93831.41;;;1.93;nan
6345;BME280;3205;42.666;23.264;2023-01-28T04:21:26;93834.47;;;1.95;nan
6345;BME280;3205;42.666;23.264;2023-01-28T04:23:53;93837.28;;;1.99;nan
6345;BME280;3205;42.666;23.264;2023-01-28T04:26:19;93836.31;;;1.95;nan
6345;BME280;3205;42.666;23.264;2023-01-28T04:28:45;93839.22;;;1.93;nan
6345;BME280;3205;42.666;23.264;2023-01-28T04:31:11;93843.66;;;1.93;nan
6345;BME280;3205;42.666;23.264;2023-01-28T04:33:37;93844.44;;;1.93;nan
6345;BME280;3205;42.666;23.264;2023-01-28T04:36:04;93845.38;;;1.97;nan
6345;BME280;3205;42.666;23.264;2023-01-28T04:38:30;93844.34;;;1.98;nan
6345;BME280;3205;42.666;23.264;2023-01-28T04:40:57;93851.84;;;2.00;nan
6345;BME280;3205;42.666;23.264;2023-01-28T04:43:23;93850.00;;;2.00;nan
6345;BME280;3205;42.666;23.264;2023-01-28T04:45:49;93863.03;;;2.00;nan
6345;BME280;3205;42.666;23.264;2023-01-28T04:48:16;93858.41;;;1.97;nan
6345;BME280;3205;42.666;23.264;2023-01-28T04:50:42;93859.97;;;1.85;nan
6345;BME280;3205;42.666;23.264;2023-01-28T04:53:09;93871.25;;;1.94;nan
6345;BME280;3205;42.666;23.264;2023-01-28T04:55:35;93862.38;;;1.95;nan
6345;BME280;3205;42.666;23.264;2023-01-28T04:58:02;93867.91;;;1.93;nan
6345;BME280;3205;42.666;23.264;2023-01-28T05:00:29;93862.38;;;1.95;nan
6345;BME280;3205;42.666;23.264;2023-01-28T05:02:55;93868.34;;;1.95;nan
6345;BME280;3205;42.666;23.264;2023-01-28T05:05:21;93876.38;;;1.99;nan
6345;BME280;3205;42.666;23.264;2023-01-28T05:07:50;93873.84;;;2.07;nan
6345;BME280;3205;42.666;23.264;2023-01-28T05:10:17;93875.13;;;1.96;nan
6345;BME280;3205;42.666;23.264;2023-01-28T05:12:44;93880.41;;;2.05;nan
6345;BME280;3205;42.666;23.264;2023-01-28T05:15:11;93875.97;;;2.05;nan
6345;BME280;3205;42.666;23.264;2023-01-28T05:17:37;93883.63;;;2.02;nan
6345;BME280;3205;42.666;23.264;2023-01-28T05:20:04;93889.09;;;2.00;nan
6345;BME280;3205;42.666;23.264;2023-01-28T05:22:30;93892.28;;;1.97;nan
6345;BME280;3205;42.666;23.264;2023-01-28T05:24:56;93889.69;;;1.97;nan
6345;BME280;3205;42.666;23.264;2023-01-28T05:27:22;93892.88;;;1.94;nan
6345;BME280;3205;42.666;23.264;2023-01-28T05:29:48;93895.09;;;2.01;nan
6345;BME280;3205;42.666;23.264;2023-01-28T05:32:15;93896.41;;;2.12;nan
6345;BME280;3205;42.666;23.264;2023-01-28T05:34:41;93896.22;;;2.08;nan
6345;BME280;3205;42.666;23.264;2023-01-28T05:37:07;93898.47;;;2.15;nan
6345;BME280;3205;42.666;23.264;2023-01-28T05:39:33;93907.44;;;2.09;nan
6345;BME280;3205;42.666;23.264;2023-01-28T05:42:00;93909.19;;;2.13;nan
6345;BME280;3205;42.666;23.264;2023-01-28T05:44:26;93909.94;;;2.00;nan
6345;BME280;3205;42.666;23.264;2023-01-28T05:46:52;93918.25;;;2.02;nan
6345;BME280;3205;42.666;23.264;2023-01-28T05:49:19;93912.25;;;2.15;nan
6345;BME280;3205;42.666;23.264;2023-01-28T05:51:45;93912.84;;;2.12;nan
6345;BME280;3205;42.666;23.264;2023-01-28T05:54:13;93923.66;;;2.19;nan
6345;BME280;3205;42.666;23.264;2023-01-28T05:56:39;93914.41;;;2.13;nan
6345;BME280;3205;42.666;23.264;2023-01-28T05:59:06;93923.28;;;2.12;nan
6345;BME280;3205;42.666;23.264;2023-01-28T06:01:32;93916.13;;;2.04;nan
6345;BME280;3205;42.666;23.264;2023-01-28T06:03:58;93917.56;;;2.10;nan
6345;BME280;3205;42.666;23.264;2023-01-28T06:06:25;93919.22;;;2.06;nan
6345;BME280;3205;42.666;23.264;2023-01-28T06:08:51;93928.56;;;2.07;nan
6345;BME280;3205;42.666;23.264;2023-01-28T06:11:17;93932.16;;;2.11;nan
6345;BME280;3205;42.666;23.264;2023-01-28T06:13:44;93932.84;;;2.17;nan
6345;BME280;3205;42.666;23.264;2023-01-28T06:16:10;93940.53;;;2.21;nan
6345;BME280;3205;42.666;23.264;2023-01-28T06:18:36;93945.94;;;2.25;nan
6345;BME280;3205;42.666;23.264;2023-01-28T06:21:03;93947.97;;;2.28;nan
6345;BME280;3205;42.666;23.264;2023-01-28T06:23:30;93952.59;;;2.31;nan
6345;BME280;3205;42.666;23.264;2023-01-28T06:25:56;93960.91;;;2.33;nan
6345;BME280;3205;42.666;23.264;2023-01-28T06:28:22;93963.72;;;2.23;nan
6345;BME280;3205;42.666;23.264;2023-01-28T06:30:49;93960.63;;;2.21;nan
6345;BME280;3205;42.666;23.264;2023-01-28T06:33:16;93958.00;;;2.34;nan
6345;BME280;3205;42.666;23.264;2023-01-28T06:35:42;93968.41;;;2.48;nan
6345;BME280;3205;42.666;23.264;2023-01-28T06:38:09;93967.47;;;2.44;nan
6345;BME280;3205;42.666;23.264;2023-01-28T06:40:36;93975.84;;;2.54;nan
6345;BME280;3205;42.666;23.264;2023-01-28T06:43:02;93972.38;;;2.45;nan
6345;BME280;3205;42.666;23.264;2023-01-28T06:45:29;93984.84;;;2.48;nan
6345;BME280;3205;42.666;23.264;2023-01-28T06:47:55;93994.78;;;2.46;nan
6345;BME280;3205;42.666;23.264;2023-01-28T06:50:22;93994.28;;;2.44;nan
6345;BME280;3205;42.666;23.264;2023-01-28T06:52:48;93999.44;;;2.36;nan
6345;BME280;3205;42.666;23.264;2023-01-28T06:55:14;94005.91;;;2.25;nan
6345;BME280;3205;42.666;23.264;2023-01-28T06:57:41;94010.53;;;2.28;nan
6345;BME280;3205;42.666;23.264;2023-01-28T07:00:11;94002.91;;;2.31;nan
6345;BME280;3205;42.666;23.264;2023-01-28T07:02:37;94004.00;;;2.30;nan
6345;BME280;3205;42.666;23.264;2023-01-28T07:05:04;94006.09;;;2.42;nan
6345;BME280;3205;42.666;23.264;2023-01-28T07:07:31;94009.09;;;2.22;nan
6345;BME280;3205;42.666;23.264;2023-01-28T07:09:57;94010.16;;;2.21;nan
6345;BME280;3205;42.666;23.264;2023-01-28T07:12:23;94009.00;;;2.14;nan
6345;BME280;3205;42.666;23.264;2023-01-28T07:14:50;94020.78;;;2.24;nan
6345;BME280;3205;42.666;23.264;2023-01-28T07:17:16;94022.31;;;2.25;nan
6345;BME280;3205;42.666;23.264;2023-01-28T07:19:42;94024.56;;;2.32;nan
6345;BME280;3205;42.666;23.264;2023-01-28T07:22:08;94035.28;;;2.30;nan
6345;BME280;3205;42.666;23.264;2023-01-28T07:24:35;94034.19;;;2.31;nan
6345;BME280;3205;42.666;23.264;2023-01-28T07:27:01;94038.75;;;2.39;nan
6345;BME280;3205;42.666;23.264;2023-01-28T07:29:29;94043.59;;;2.46;nan
6345;BME280;3205;42.666;23.264;2023-01-28T07:31:55;94040.56;;;2.52;nan
6345;BME280;3205;42.666;23.264;2023-01-28T07:34:21;94039.31;;;2.50;nan
6345;BME280;3205;42.666;23.264;2023-01-28T07:36:47;94044.03;;;2.61;nan
6345;BME280;3205;42.666;23.264;2023-01-28T07:39:14;94045.69;;;2.71;nan
6345;BME280;3205;42.666;23.264;2023-01-28T07:41:40;94057.84;;;2.75;nan
6345;BME280;3205;42.666;23.264;2023-01-28T07:44:06;94049.34;;;2.70;nan
6345;BME280;3205;42.666;23.264;2023-01-28T07:46:32;94049.16;;;2.80;nan
6345;BME280;3205;42.666;23.264;2023-01-28T07:48:59;94053.47;;;2.97;nan
6345;BME280;3205;42.666;23.264;2023-01-28T07:51:25;94060.72;;;2.87;nan
6345;BME280;3205;42.666;23.264;2023-01-28T07:53:51;94056.88;;;2.98;nan
6345;BME280;3205;42.666;23.264;2023-01-28T07:56:17;94059.69;;;3.23;nan
6345;BME280;3205;42.666;23.264;2023-01-28T07:58:43;94063.28;;;3.27;nan
6345;BME280;3205;42.666;23.264;2023-01-28T08:01:09;94064.34;;;3.26;nan
6345;BME280;3205;42.666;23.264;2023-01-28T08:03:35;94066.63;;;3.28;nan
6345;BME280;3205;42.666;23.264;2023-01-28T08:06:03;94077.56;;;3.30;nan
6345;BME280;3205;42.666;23.264;2023-01-28T08:08:29;94074.53;;;3.36;nan
6345;BME280;3205;42.666;23.264;2023-01-28T08:10:55;94078.50;;;3.47;nan
6345;BME280;3205;42.666;23.264;2023-01-28T08:13:21;94077.97;;;3.59;nan
6345;BME280;3205;42.666;23.264;2023-01-28T08:15:48;94082.78;;;3.65;nan
6345;BME280;3205;42.666;23.264;2023-01-28T08:18:15;94089.03;;;3.77;nan
6345;BME280;3205;42.666;23.264;2023-01-28T08:20:42;94096.03;;;3.90;nan
6345;BME280;3205;42.666;23.264;2023-01-28T08:23:12;94089.78;;;4.00;nan
6345;BME280;3205;42.666;23.264;2023-01-28T08:25:39;94099.13;;;3.92;nan
6345;BME280;3205;42.666;23.264;2023-01-28T08:28:06;94100.19;;;3.91;nan
6345;BME280;3205;42.666;23.264;2023-01-28T08:30:32;94102.19;;;3.94;nan
6345;BME280;3205;42.666;23.264;2023-01-28T08:32:59;94093.41;;;4.12;nan
6345;BME280;3205;42.666;23.264;2023-01-28T08:35:26;94106.47;;;4.12;nan
6345;BME280;3205;42.666;23.264;2023-01-28T08:37:52;94104.88;;;4.03;nan
6345;BME280;3205;42.666;23.264;2023-01-28T08:40:19;94097.16;;;4.28;nan
6345;BME280;3205;42.666;23.264;2023-01-28T08:42:46;94099.91;;;4.53;nan
6345;BME280;3205;42.666;23.264;2023-01-28T08:45:13;94096.38;;;4.58;nan
6345;BME280;3205;42.666;23.264;2023-01-28T08:47:46;94097.38;;;4.70;nan
6345;BME280;3205;42.666;23.264;2023-01-28T08:50:12;94107.69;;;4.75;nan
6345;BME280;3205;42.666;23.264;2023-01-28T08:52:39;94097.41;;;4.79;nan
6345;BME280;3205;42.666;23.264;2023-01-28T08:55:07;94108.03;;;4.82;nan
6345;BME280;3205;42.666;23.264;2023-01-28T08:57:34;94106.56;;;4.98;nan
6345;BME280;3205;42.666;23.264;2023-01-28T09:00:00;94110.75;;;5.16;nan
6345;BME280;3205;42.666;23.264;2023-01-28T09:02:26;94112.47;;;5.29;nan
6345;BME280;3205;42.666;23.264;2023-01-28T09:04:52;94115.56;;;5.39;nan
6345;BME280;3205;42.666;23.264;2023-01-28T09:07:18;94115.47;;;4.97;nan
6345;BME280;3205;42.666;23.264;2023-01-28T09:09:44;94114.03;;;4.83;nan
6345;BME280;3205;42.666;23.264;2023-01-28T09:12:10;94111.16;;;5.01;nan
6345;BME280;3205;42.666;23.264;2023-01-28T09:14:37;94116.06;;;4.94;nan
6345;BME280;3205;42.666;23.264;2023-01-28T09:17:04;94123.44;;;4.84;nan
6345;BME280;3205;42.666;23.264;2023-01-28T09:19:30;94118.31;;;4.70;nan
6345;BME280;3205;42.666;23.264;2023-01-28T09:21:56;94123.31;;;4.58;nan
6345;BME280;3205;42.666;23.264;2023-01-28T09:24:22;94121.53;;;4.67;nan
6345;BME280;3205;42.666;23.264;2023-01-28T09:26:48;94119.69;;;4.68;nan
6345;BME280;3205;42.666;23.264;2023-01-28T09:29:15;94119.25;;;4.44;nan
6345;BME280;3205;42.666;23.264;2023-01-28T09:31:42;94117.88;;;4.46;nan
6345;BME280;3205;42.666;23.264;2023-01-28T09:34:08;94116.69;;;4.52;nan
6345;BME280;3205;42.666;23.264;2023-01-28T09:36:35;94115.34;;;4.63;nan
6345;BME280;3205;42.666;23.264;2023-01-28T09:39:02;94113.84;;;4.71;nan
6345;BME280;3205;42.666;23.264;2023-01-28T09:41:35;94111.66;;;5.03;nan
6345;BME280;3205;42.666;23.264;2023-01-28T09:44:22;94113.53;;;5.19;nan
6345;BME280;3205;42.666;23.264;2023-01-28T09:46:59;94122.44;;;5.02;nan
6345;BME280;3205;42.666;23.264;2023-01-28T09:49:33;94117.47;;;5.00;nan
6345;BME280;3205;42.666;23.264;2023-01-28T09:52:00;94113.03;;;5.09;nan
6345;BME280;3205;42.666;23.264;2023-01-28T09:54:41;94114.81;;;5.39;nan
6345;BME280;3205;42.666;23.264;2023-01-28T09:57:16;94113.84;;;5.18;nan
6345;BME280;3205;42.666;23.264;2023-01-28T09:59:43;94120.00;;;5.13;nan
6345;BME280;3205;42.666;23.264;2023-01-28T10:02:27;94122.06;;;5.42;nan
6345;BME280;3205;42.666;23.264;2023-01-28T10:04:59;94116.47;;;5.18;nan
6345;BME280;3205;42.666;23.264;2023-01-28T10:07:35;94116.16;;;5.11;nan
6345;BME280;3205;42.666;23.264;2023-01-28T10:10:10;94115.41;;;4.80;nan
6345;BME280;3205;42.666;23.264;2023-01-28T10:12:54;94114.47;;;4.68;nan
6345;BME280;3205;42.666;23.264;2023-01-28T10:18:32;94111.72;;;4.42;nan
6345;BME280;3205;42.666;23.264;2023-01-28T10:21:04;94104.84;;;4.25;nan
6345;BME280;3205;42.666;23.264;2023-01-28T10:23:40;94105.94;;;4.24;nan
6345;BME280;3205;42.666;23.264;2023-01-28T10:26:20;94111.94;;;4.24;nan
6345;BME280;3205;42.666;23.264;2023-01-28T10:28:53;94104.22;;;4.19;nan
6345;BME280;3205;42.666;23.264;2023-01-28T10:31:21;94113.13;;;4.18;nan
6345;BME280;3205;42.666;23.264;2023-01-28T10:33:48;94106.94;;;4.14;nan
6345;BME280;3205;42.666;23.264;2023-01-28T10:36:15;94109.53;;;4.36;nan
6345;BME280;3205;42.666;23.264;2023-01-28T10:38:42;94099.38;;;4.35;nan
6345;BME280;3205;42.666;23.264;2023-01-28T10:41:10;94102.84;;;4.52;nan
6345;BME280;3205;42.666;23.264;2023-01-28T10:43:41;94100.03;;;4.48;nan
6345;BME280;3205;42.666;23.264;2023-01-28T10:46:10;94105.69;;;4.72;nan
6345;BME280;3205;42.666;23.264;2023-01-28T10:48:41;94107.25;;;4.82;nan
6345;BME280;3205;42.666;23.264;2023-01-28T10:51:09;94100.00;;;4.79;nan
6345;BME280;3205;42.666;23.264;2023-01-28T10:53:37;94105.47;;;4.99;nan
6345;BME280;3205;42.666;23.264;2023-01-28T10:56:05;94097.81;;;5.19;nan
6345;BME280;3205;42.666;23.264;2023-01-28T10:58:33;94095.53;;;5.26;nan
6345;BME280;3205;42.666;23.264;2023-01-28T11:01:04;94098.78;;;5.40;nan
6345;BME280;3205;42.666;23.264;2023-01-28T11:03:30;94101.41;;;5.74;nan
6345;BME280;3205;42.666;23.264;2023-01-28T11:05:59;94096.97;;;5.91;nan
6345;BME280;3205;42.666;23.264;2023-01-28T11:08:28;94101.38;;;6.33;nan
6345;BME280;3205;42.666;23.264;2023-01-28T11:10:55;94099.78;;;6.58;nan
6345;BME280;3205;42.666;23.264;2023-01-28T11:13:23;94106.69;;;6.70;nan
6345;BME280;3205;42.666;23.264;2023-01-28T11:15:51;94108.63;;;6.82;nan
6345;BME280;3205;42.666;23.264;2023-01-28T11:18:21;94103.16;;;6.58;nan
6345;BME280;3205;42.666;23.264;2023-01-28T11:20:51;94104.91;;;6.37;nan
6345;BME280;3205;42.666;23.264;2023-01-28T11:23:21;94106.38;;;5.92;nan
6345;BME280;3205;42.666;23.264;2023-01-28T11:25:59;94106.22;;;5.81;nan
6345;BME280;3205;42.666;23.264;2023-01-28T11:28:27;94100.97;;;5.55;nan
6345;BME280;3205;42.666;23.264;2023-01-28T11:30:57;94103.72;;;5.67;nan
6345;BME280;3205;42.666;23.264;2023-01-28T11:33:30;94092.59;;;5.70;nan
6345;BME280;3205;42.666;23.264;2023-01-28T11:36:04;94098.50;;;5.92;nan
6345;BME280;3205;42.666;23.264;2023-01-28T11:38:30;94099.75;;;5.95;nan
6345;BME280;3205;42.666;23.264;2023-01-28T11:40:57;94100.97;;;5.97;nan
6345;BME280;3205;42.666;23.264;2023-01-28T11:43:28;94098.00;;;5.74;nan
6345;BME280;3205;42.666;23.264;2023-01-28T11:46:02;94092.00;;;5.90;nan
6345;BME280;3205;42.666;23.264;2023-01-28T11:48:40;94094.81;;;5.85;nan
6345;BME280;3205;42.666;23.264;2023-01-28T11:51:22;94093.56;;;5.99;nan
6345;BME280;3205;42.666;23.264;2023-01-28T11:54:02;94093.41;;;5.96;nan
6345;BME280;3205;42.666;23.264;2023-01-28T11:56:53;94100.19;;;6.05;nan
6345;BME280;3205;42.666;23.264;2023-01-28T11:59:41;94090.38;;;6.40;nan
6345;BME280;3205;42.666;23.264;2023-01-28T12:02:24;94090.03;;;6.58;nan
6345;BME280;3205;42.666;23.264;2023-01-28T12:05:07;94091.63;;;6.79;nan
6345;BME280;3205;42.666;23.264;2023-01-28T12:07:45;94100.06;;;6.56;nan
6345;BME280;3205;42.666;23.264;2023-01-28T12:10:20;94096.06;;;6.50;nan
6345;BME280;3205;42.666;23.264;2023-01-28T12:13:05;94098.94;;;6.65;nan
6345;BME280;3205;42.666;23.264;2023-01-28T12:19:07;94092.97;;;6.48;nan
6345;BME280;3205;42.666;23.264;2023-01-28T12:21:52;94095.06;;;6.26;nan
6345;BME280;3205;42.666;23.264;2023-01-28T12:24:36;94094.31;;;6.00;nan
6345;BME280;3205;42.666;23.264;2023-01-28T12:27:19;94091.09;;;5.86;nan
6345;BME280;3205;42.666;23.264;2023-01-28T12:29:58;94098.97;;;5.86;nan
6345;BME280;3205;42.666;23.264;2023-01-28T12:32:37;94095.56;;;5.77;nan
6345;BME280;3205;42.666;23.264;2023-01-28T12:35:25;94105.41;;;5.63;nan
6345;BME280;3205;42.666;23.264;2023-01-28T12:38:07;94100.16;;;5.55;nan
6345;BME280;3205;42.666;23.264;2023-01-28T12:40:49;94111.41;;;5.38;nan
6345;BME280;3205;42.666;23.264;2023-01-28T12:43:26;94110.66;;;5.55;nan
6345;BME280;3205;42.666;23.264;2023-01-28T12:46:03;94104.34;;;5.47;nan
6345;BME280;3205;42.666;23.264;2023-01-28T12:48:36;94109.09;;;5.54;nan
6345;BME280;3205;42.666;23.264;2023-01-28T12:51:09;94116.06;;;5.75;nan
6345;BME280;3205;42.666;23.264;2023-01-28T12:53:42;94122.84;;;5.68;nan
6345;BME280;3205;42.666;23.264;2023-01-28T12:56:15;94124.84;;;5.71;nan
6345;BME280;3205;42.666;23.264;2023-01-28T12:58:47;94118.66;;;5.67;nan
6345;BME280;3205;42.666;23.264;2023-01-28T13:01:20;94122.53;;;5.52;nan
6345;BME280;3205;42.666;23.264;2023-01-28T13:03:51;94129.75;;;5.47;nan
6345;BME280;3205;42.666;23.264;2023-01-28T13:06:25;94120.53;;;5.58;nan
6345;BME280;3205;42.666;23.264;2023-01-28T13:08:56;94123.63;;;5.68;nan
6345;BME280;3205;42.666;23.264;2023-01-28T13:11:30;94124.56;;;5.81;nan
6345;BME280;3205;42.666;23.264;2023-01-28T13:13:58;94129.16;;;5.67;nan
6345;BME280;3205;42.666;23.264;2023-01-28T13:16:26;94132.09;;;5.74;nan
6345;BME280;3205;42.666;23.264;2023-01-28T13:18:52;94143.19;;;5.54;nan
6345;BME280;3205;42.666;23.264;2023-01-28T13:21:33;94144.13;;;5.58;nan
6345;BME280;3205;42.666;23.264;2023-01-28T13:24:05;94135.19;;;5.67;nan
6345;BME280;3205;42.666;23.264;2023-01-28T13:26:45;94140.06;;;5.26;nan
6345;BME280;3205;42.666;23.264;2023-01-28T13:29:20;94146.69;;;5.32;nan
6345;BME280;3205;42.666;23.264;2023-01-28T13:31:48;94150.13;;;5.50;nan
6345;BME280;3205;42.666;23.264;2023-01-28T13:34:27;94151.84;;;5.63;nan
6345;BME280;3205;42.666;23.264;2023-01-28T13:36:55;94154.63;;;5.58;nan
6345;BME280;3205;42.666;23.264;2023-01-28T13:39:23;94159.53;;;5.51;nan
6345;BME280;3205;42.666;23.264;2023-01-28T13:41:53;94153.66;;;5.37;nan
6345;BME280;3205;42.666;23.264;2023-01-28T13:44:26;94156.91;;;5.42;nan
6345;BME280;3205;42.666;23.264;2023-01-28T13:46:55;94157.34;;;5.44;nan
6345;BME280;3205;42.666;23.264;2023-01-28T13:49:27;94157.97;;;5.41;nan
6345;BME280;3205;42.666;23.264;2023-01-28T13:51:59;94164.13;;;5.28;nan
6345;BME280;3205;42.666;23.264;2023-01-28T13:54:28;94165.19;;;5.27;nan
6345;BME280;3205;42.666;23.264;2023-01-28T13:57:07;94163.97;;;5.33;nan
6345;BME280;3205;42.666;23.264;2023-01-28T13:59:47;94172.16;;;5.32;nan
6345;BME280;3205;42.666;23.264;2023-01-28T14:02:42;94172.22;;;5.10;nan
6345;BME280;3205;42.666;23.264;2023-01-28T14:05:48;94173.69;;;4.94;nan
6345;BME280;3205;42.666;23.264;2023-01-28T14:08:44;94173.84;;;4.89;nan
6345;BME280;3205;42.666;23.264;2023-01-28T14:11:33;94174.88;;;4.80;nan
6345;BME280;3205;42.666;23.264;2023-01-28T14:14:30;94181.88;;;4.62;nan
6345;BME280;3205;42.666;23.264;2023-01-28T14:17:12;94177.84;;;4.56;nan